sensor_id;sensor_type;location;lat;lon;timestamp;P1;durP1;ratioP1;P2;durP2;ratioP2
2824;SDS011;1420;51.324;12.344;2022-10-31T00:01:22;21.92;;;14.38;;
2824;SDS011;1420;51.324;12.344;2022-10-31T00:03:48;32.58;;;29.22;;
2824;SDS011;1420;51.324;12.344;2022-10-31T00:06:16;23.68;;;15.52;;
2824;SDS011;1420;51.324;12.344;2022-10-31T00:08:46;33.50;;;22.54;;
2824;SDS011;1420;51.324;12.344;2022-10-31T00:11:13;25.20;;;18.02;;
2824;SDS011;1420;51.324;12.344;2022-10-31T00:13:40;23.66;;;13.62;;
2824;SDS011;1420;51.324;12.344;2022-10-31T00:16:13;24.44;;;14.72;;
2824;SDS011;1420;51.324;12.344;2022-10-31T00:18:41;24.30;;;21.16;;
2824;SDS011;1420;51.324;12.344;2022-10-31T00:21:09;31.82;;;24.46;;
2824;SDS011;1420;51.324;12.344;2022-10-31T00:23:36;25.16;;;16.24;;
2824;SDS011;1420;51.324;12.344;2022-10-31T00:26:03;40.16;;;36.48;;
2824;SDS011;1420;51.324;12.344;2022-10-31T00:28:30;23.92;;;16.54;;
2824;SDS011;1420;51.324;12.344;2022-10-31T00:30:58;37.04;;;17.54;;
2824;SDS011;1420;51.324;12.344;2022-10-31T00:33:28;22.32;;;17.90;;
2824;SDS011;1420;51.324;12.344;2022-10-31T00:35:56;21.88;;;12.20;;
2824;SDS011;1420;51.324;12.344;2022-10-31T00:38:23;19.14;;;12.06;;
2824;SDS011;1420;51.324;12.344;2022-10-31T00:40:50;24.84;;;18.00;;
2824;SDS011;1420;51.324;12.344;2022-10-31T00:43:17;23.18;;;14.84;;
2824;SDS011;1420;51.324;12.344;2022-10-31T00:45:44;24.24;;;10.44;;
2824;SDS011;1420;51.324;12.344;2022-10-31T00:48:12;22.02;;;13.48;;
2824;SDS011;1420;51.324;12.344;2022-10-31T00:50:41;20.84;;;15.08;;
2824;SDS011;1420;51.324;12.344;2022-10-31T00:53:07;22.80;;;16.54;;
2824;SDS011;1420;51.324;12.344;2022-10-31T00:55:34;33.08;;;29.44;;
2824;SDS011;1420;51.324;12.344;2022-10-31T00:58:01;27.04;;;19.02;;
2824;SDS011;1420;51.324;12.344;2022-10-31T01:00:28;22.78;;;19.18;;
2824;SDS011;1420;51.324;12.344;2022-10-31T01:02:56;25.04;;;18.80;;
2824;SDS011;1420;51.324;12.344;2022-10-31T01:05:24;22.46;;;17.86;;
2824;SDS011;1420;51.324;12.344;2022-10-31T01:07:52;24.38;;;12.72;;
2824;SDS011;1420;51.324;12.344;2022-10-31T01:10:20;22.52;;;18.78;;
2824;SDS011;1420;51.324;12.344;2022-10-31T01:12:47;22.56;;;19.00;;
2824;SDS011;1420;51.324;12.344;2022-10-31T01:15:15;22.92;;;16.58;;
2824;SDS011;1420;51.324;12.344;2022-10-31T01:17:41;20.40;;;9.74;;
2824;SDS011;1420;51.324;12.344;2022-10-31T01:20:09;19.86;;;9.86;;
2824;SDS011;1420;51.324;12.344;2022-10-31T01:22:36;21.08;;;11.16;;
2824;SDS011;1420;51.324;12.344;2022-10-31T01:25:05;18.96;;;8.02;;
2824;SDS011;1420;51.324;12.344;2022-10-31T01:27:33;24.44;;;20.68;;
2824;SDS011;1420;51.324;12.344;2022-10-31T01:30:00;18.64;;;11.68;;
2824;SDS011;1420;51.324;12.344;2022-10-31T01:32:27;17.50;;;11.84;;
2824;SDS011;1420;51.324;12.344;2022-10-31T01:34:55;20.74;;;8.88;;
2824;SDS011;1420;51.324;12.344;2022-10-31T01:37:23;18.52;;;10.22;;
2824;SDS011;1420;51.324;12.344;2022-10-31T01:39:51;19.62;;;11.58;;
2824;SDS011;1420;51.324;12.344;2022-10-31T01:42:19;25.46;;;13.44;;
2824;SDS011;1420;51.324;12.344;2022-10-31T01:44:53;25.34;;;12.60;;
2824;SDS011;1420;51.324;12.344;2022-10-31T01:47:19;21.64;;;14.40;;
2824;SDS011;1420;51.324;12.344;2022-10-31T01:49:47;23.68;;;20.66;;
2824;SDS011;1420;51.324;12.344;2022-10-31T01:52:20;34.02;;;22.64;;
2824;SDS011;1420;51.324;12.344;2022-10-31T01:54:46;32.70;;;28.98;;
2824;SDS011;1420;51.324;12.344;2022-10-31T01:57:12;28.70;;;22.62;;
2824;SDS011;1420;51.324;12.344;2022-10-31T01:59:43;28.56;;;25.50;;
2824;SDS011;1420;51.324;12.344;2022-10-31T02:02:09;27.40;;;24.02;;
2824;SDS011;1420;51.324;12.344;2022-10-31T02:04:37;26.94;;;23.48;;
2824;SDS011;1420;51.324;12.344;2022-10-31T02:07:13;25.08;;;21.18;;
2824;SDS011;1420;51.324;12.344;2022-10-31T02:09:43;27.64;;;22.24;;
2824;SDS011;1420;51.324;12.344;2022-10-31T02:12:10;25.26;;;19.34;;
2824;SDS011;1420;51.324;12.344;2022-10-31T02:14:37;36.78;;;31.56;;
2824;SDS011;1420;51.324;12.344;2022-10-31T02:17:04;42.24;;;38.70;;
2824;SDS011;1420;51.324;12.344;2022-10-31T02:19:35;31.94;;;29.18;;
2824;SDS011;1420;51.324;12.344;2022-10-31T02:24:49;27.12;;;24.30;;
2824;SDS011;1420;51.324;12.344;2022-10-31T02:27:21;41.84;;;38.06;;
2824;SDS011;1420;51.324;12.344;2022-10-31T02:29:53;41.42;;;37.72;;
2824;SDS011;1420;51.324;12.344;2022-10-31T02:32:27;36.72;;;33.60;;
2824;SDS011;1420;51.324;12.344;2022-10-31T02:34:58;25.44;;;21.32;;
2824;SDS011;1420;51.324;12.344;2022-10-31T02:37:34;37.76;;;33.90;;
2824;SDS011;1420;51.324;12.344;2022-10-31T02:42:39;20.04;;;17.68;;
2824;SDS011;1420;51.324;12.344;2022-10-31T02:45:08;30.44;;;27.44;;
2824;SDS011;1420;51.324;12.344;2022-10-31T02:47:37;35.52;;;32.34;;
2824;SDS011;1420;51.324;12.344;2022-10-31T02:50:06;34.20;;;31.14;;
2824;SDS011;1420;51.324;12.344;2022-10-31T02:52:34;27.50;;;22.92;;
2824;SDS011;1420;51.324;12.344;2022-10-31T02:57:36;30.58;;;27.90;;
2824;SDS011;1420;51.324;12.344;2022-10-31T03:00:04;31.20;;;28.14;;
2824;SDS011;1420;51.324;12.344;2022-10-31T03:03:06;47.02;;;42.94;;
2824;SDS011;1420;51.324;12.344;2022-10-31T03:05:23;32.76;;;28.94;;
2824;SDS011;1420;51.324;12.344;2022-10-31T03:07:57;32.58;;;29.42;;
2824;SDS011;1420;51.324;12.344;2022-10-31T03:10:27;40.28;;;36.48;;
2824;SDS011;1420;51.324;12.344;2022-10-31T03:13:01;43.90;;;40.08;;
2824;SDS011;1420;51.324;12.344;2022-10-31T03:15:27;66.38;;;61.32;;
2824;SDS011;1420;51.324;12.344;2022-10-31T03:17:56;64.46;;;59.44;;
2824;SDS011;1420;51.324;12.344;2022-10-31T03:20:41;52.28;;;48.14;;
2824;SDS011;1420;51.324;12.344;2022-10-31T03:23:08;30.40;;;26.70;;
2824;SDS011;1420;51.324;12.344;2022-10-31T03:25:35;64.38;;;59.14;;
2824;SDS011;1420;51.324;12.344;2022-10-31T03:28:02;73.30;;;67.98;;
2824;SDS011;1420;51.324;12.344;2022-10-31T03:30:30;42.42;;;38.54;;
2824;SDS011;1420;51.324;12.344;2022-10-31T03:32:58;56.94;;;52.52;;
2824;SDS011;1420;51.324;12.344;2022-10-31T03:35:26;75.64;;;69.40;;
2824;SDS011;1420;51.324;12.344;2022-10-31T03:37:54;58.76;;;54.02;;
2824;SDS011;1420;51.324;12.344;2022-10-31T03:40:21;70.36;;;63.12;;
2824;SDS011;1420;51.324;12.344;2022-10-31T03:42:51;62.48;;;57.62;;
2824;SDS011;1420;51.324;12.344;2022-10-31T03:45:18;56.18;;;51.84;;
2824;SDS011;1420;51.324;12.344;2022-10-31T03:47:44;69.34;;;63.54;;
2824;SDS011;1420;51.324;12.344;2022-10-31T03:50:12;61.54;;;57.18;;
2824;SDS011;1420;51.324;12.344;2022-10-31T03:52:44;51.64;;;46.62;;
2824;SDS011;1420;51.324;12.344;2022-10-31T03:55:17;62.68;;;58.32;;
2824;SDS011;1420;51.324;12.344;2022-10-31T03:57:48;51.32;;;47.36;;
2824;SDS011;1420;51.324;12.344;2022-10-31T04:00:13;65.44;;;60.54;;
2824;SDS011;1420;51.324;12.344;2022-10-31T04:02:42;65.32;;;60.48;;
2824;SDS011;1420;51.324;12.344;2022-10-31T04:05:09;96.36;;;88.96;;
2824;SDS011;1420;51.324;12.344;2022-10-31T04:07:37;52.10;;;46.40;;
2824;SDS011;1420;51.324;12.344;2022-10-31T04:10:04;44.48;;;41.14;;
2824;SDS011;1420;51.324;12.344;2022-10-31T04:12:32;89.16;;;82.04;;
2824;SDS011;1420;51.324;12.344;2022-10-31T04:14:59;52.48;;;48.52;;
2824;SDS011;1420;51.324;12.344;2022-10-31T04:17:27;67.22;;;62.40;;
2824;SDS011;1420;51.324;12.344;2022-10-31T04:19:54;101.96;;;95.04;;
2824;SDS011;1420;51.324;12.344;2022-10-31T04:22:22;100.18;;;93.58;;
2824;SDS011;1420;51.324;12.344;2022-10-31T04:24:50;79.64;;;74.02;;
2824;SDS011;1420;51.324;12.344;2022-10-31T04:27:17;67.24;;;62.14;;
2824;SDS011;1420;51.324;12.344;2022-10-31T04:29:45;81.36;;;75.18;;
2824;SDS011;1420;51.324;12.344;2022-10-31T04:32:12;87.30;;;81.78;;
2824;SDS011;1420;51.324;12.344;2022-10-31T04:34:39;85.50;;;79.32;;
2824;SDS011;1420;51.324;12.344;2022-10-31T04:37:06;73.22;;;67.80;;
2824;SDS011;1420;51.324;12.344;2022-10-31T04:39:33;89.48;;;81.16;;
2824;SDS011;1420;51.324;12.344;2022-10-31T04:42:01;71.00;;;65.86;;
2824;SDS011;1420;51.324;12.344;2022-10-31T04:44:28;79.26;;;73.64;;
2824;SDS011;1420;51.324;12.344;2022-10-31T04:46:55;98.88;;;91.78;;
2824;SDS011;1420;51.324;12.344;2022-10-31T04:49:22;79.40;;;73.64;;
2824;SDS011;1420;51.324;12.344;2022-10-31T04:51:49;97.34;;;90.84;;
2824;SDS011;1420;51.324;12.344;2022-10-31T04:54:17;78.80;;;73.26;;
2824;SDS011;1420;51.324;12.344;2022-10-31T04:56:44;81.52;;;75.30;;
2824;SDS011;1420;51.324;12.344;2022-10-31T04:59:12;109.72;;;101.52;;
2824;SDS011;1420;51.324;12.344;2022-10-31T05:01:40;99.32;;;92.04;;
2824;SDS011;1420;51.324;12.344;2022-10-31T05:04:08;100.60;;;93.90;;
2824;SDS011;1420;51.324;12.344;2022-10-31T05:06:35;78.80;;;73.06;;
2824;SDS011;1420;51.324;12.344;2022-10-31T05:09:02;86.86;;;80.90;;
2824;SDS011;1420;51.324;12.344;2022-10-31T05:11:29;85.14;;;79.38;;
2824;SDS011;1420;51.324;12.344;2022-10-31T05:13:57;101.42;;;93.94;;
2824;SDS011;1420;51.324;12.344;2022-10-31T05:16:24;99.52;;;92.12;;
2824;SDS011;1420;51.324;12.344;2022-10-31T05:18:52;74.40;;;68.14;;
2824;SDS011;1420;51.324;12.344;2022-10-31T05:21:19;79.26;;;73.42;;
2824;SDS011;1420;51.324;12.344;2022-10-31T05:23:46;80.10;;;74.08;;
2824;SDS011;1420;51.324;12.344;2022-10-31T05:26:14;83.14;;;77.48;;
2824;SDS011;1420;51.324;12.344;2022-10-31T05:28:41;92.70;;;85.86;;
2824;SDS011;1420;51.324;12.344;2022-10-31T05:31:08;86.92;;;80.65;;
2824;SDS011;1420;51.324;12.344;2022-10-31T05:33:36;83.76;;;78.06;;
2824;SDS011;1420;51.324;12.344;2022-10-31T05:36:04;77.22;;;71.88;;
2824;SDS011;1420;51.324;12.344;2022-10-31T05:38:31;99.16;;;92.32;;
2824;SDS011;1420;51.324;12.344;2022-10-31T05:40:58;77.16;;;70.96;;
2824;SDS011;1420;51.324;12.344;2022-10-31T05:43:26;105.32;;;97.56;;
2824;SDS011;1420;51.324;12.344;2022-10-31T05:45:54;114.16;;;105.72;;
2824;SDS011;1420;51.324;12.344;2022-10-31T05:48:21;97.54;;;90.44;;
2824;SDS011;1420;51.324;12.344;2022-10-31T05:50:48;128.38;;;119.92;;
2824;SDS011;1420;51.324;12.344;2022-10-31T05:53:15;101.72;;;94.80;;
2824;SDS011;1420;51.324;12.344;2022-10-31T05:55:43;111.57;;;103.73;;
2824;SDS011;1420;51.324;12.344;2022-10-31T05:58:10;96.10;;;89.00;;
2824;SDS011;1420;51.324;12.344;2022-10-31T06:00:38;113.07;;;105.53;;
2824;SDS011;1420;51.324;12.344;2022-10-31T06:03:06;111.60;;;103.10;;
2824;SDS011;1420;51.324;12.344;2022-10-31T06:05:32;143.08;;;132.83;;
2824;SDS011;1420;51.324;12.344;2022-10-31T06:07:59;124.12;;;115.14;;
2824;SDS011;1420;51.324;12.344;2022-10-31T06:10:27;103.67;;;96.17;;
2824;SDS011;1420;51.324;12.344;2022-10-31T06:12:54;95.56;;;88.60;;
2824;SDS011;1420;51.324;12.344;2022-10-31T06:15:21;116.58;;;107.58;;
2824;SDS011;1420;51.324;12.344;2022-10-31T06:17:56;106.90;;;99.04;;
2824;SDS011;1420;51.324;12.344;2022-10-31T06:20:16;68.36;;;62.42;;
2824;SDS011;1420;51.324;12.344;2022-10-31T06:22:44;91.46;;;84.58;;
2824;SDS011;1420;51.324;12.344;2022-10-31T06:25:11;86.90;;;80.96;;
2824;SDS011;1420;51.324;12.344;2022-10-31T06:27:39;83.76;;;77.66;;
2824;SDS011;1420;51.324;12.344;2022-10-31T06:30:06;79.44;;;73.96;;
2824;SDS011;1420;51.324;12.344;2022-10-31T06:32:34;97.26;;;89.98;;
2824;SDS011;1420;51.324;12.344;2022-10-31T06:35:02;66.52;;;61.86;;
2824;SDS011;1420;51.324;12.344;2022-10-31T06:37:29;78.60;;;72.66;;
2824;SDS011;1420;51.324;12.344;2022-10-31T06:39:56;39.54;;;36.02;;
2824;SDS011;1420;51.324;12.344;2022-10-31T06:42:23;56.46;;;51.78;;
2824;SDS011;1420;51.324;12.344;2022-10-31T06:44:51;38.40;;;34.60;;
2824;SDS011;1420;51.324;12.344;2022-10-31T06:47:18;44.12;;;40.38;;
2824;SDS011;1420;51.324;12.344;2022-10-31T06:49:45;38.58;;;35.04;;
2824;SDS011;1420;51.324;12.344;2022-10-31T06:52:12;26.82;;;23.98;;
2824;SDS011;1420;51.324;12.344;2022-10-31T06:54:40;22.64;;;17.32;;
2824;SDS011;1420;51.324;12.344;2022-10-31T06:57:08;24.40;;;18.78;;
2824;SDS011;1420;51.324;12.344;2022-10-31T06:59:35;24.92;;;15.98;;
2824;SDS011;1420;51.324;12.344;2022-10-31T07:02:03;16.88;;;9.04;;
2824;SDS011;1420;51.324;12.344;2022-10-31T07:04:30;16.40;;;7.12;;
2824;SDS011;1420;51.324;12.344;2022-10-31T07:06:57;13.92;;;5.38;;
2824;SDS011;1420;51.324;12.344;2022-10-31T07:09:24;14.56;;;5.36;;
2824;SDS011;1420;51.324;12.344;2022-10-31T07:11:52;14.60;;;5.10;;
2824;SDS011;1420;51.324;12.344;2022-10-31T07:14:19;14.30;;;6.00;;
2824;SDS011;1420;51.324;12.344;2022-10-31T07:16:48;14.84;;;5.14;;
2824;SDS011;1420;51.324;12.344;2022-10-31T07:19:16;18.84;;;6.16;;
2824;SDS011;1420;51.324;12.344;2022-10-31T07:21:43;15.48;;;5.92;;
2824;SDS011;1420;51.324;12.344;2022-10-31T07:24:10;15.18;;;4.64;;
2824;SDS011;1420;51.324;12.344;2022-10-31T07:26:37;16.06;;;5.54;;
2824;SDS011;1420;51.324;12.344;2022-10-31T07:29:04;17.36;;;5.62;;
2824;SDS011;1420;51.324;12.344;2022-10-31T07:31:32;21.52;;;6.96;;
2824;SDS011;1420;51.324;12.344;2022-10-31T07:34:00;16.86;;;5.42;;
2824;SDS011;1420;51.324;12.344;2022-10-31T07:36:28;16.98;;;5.44;;
2824;SDS011;1420;51.324;12.344;2022-10-31T07:38:56;14.00;;;5.22;;
2824;SDS011;1420;51.324;12.344;2022-10-31T07:41:24;14.60;;;4.84;;
2824;SDS011;1420;51.324;12.344;2022-10-31T07:43:52;15.30;;;5.12;;
2824;SDS011;1420;51.324;12.344;2022-10-31T07:46:21;13.88;;;4.88;;
2824;SDS011;1420;51.324;12.344;2022-10-31T07:48:47;13.10;;;4.40;;
2824;SDS011;1420;51.324;12.344;2022-10-31T07:51:14;15.50;;;4.74;;
2824;SDS011;1420;51.324;12.344;2022-10-31T07:53:41;14.52;;;5.42;;
2824;SDS011;1420;51.324;12.344;2022-10-31T07:56:08;14.66;;;5.00;;
2824;SDS011;1420;51.324;12.344;2022-10-31T07:58:36;16.92;;;5.68;;
2824;SDS011;1420;51.324;12.344;2022-10-31T08:01:03;14.82;;;5.16;;
2824;SDS011;1420;51.324;12.344;2022-10-31T08:03:30;14.90;;;5.40;;
2824;SDS011;1420;51.324;12.344;2022-10-31T08:05:57;14.88;;;5.28;;
2824;SDS011;1420;51.324;12.344;2022-10-31T08:08:24;17.36;;;4.80;;
2824;SDS011;1420;51.324;12.344;2022-10-31T08:10:52;15.32;;;5.20;;
2824;SDS011;1420;51.324;12.344;2022-10-31T08:13:19;16.12;;;5.66;;
2824;SDS011;1420;51.324;12.344;2022-10-31T08:15:47;16.60;;;5.32;;
2824;SDS011;1420;51.324;12.344;2022-10-31T08:18:15;17.48;;;6.02;;
2824;SDS011;1420;51.324;12.344;2022-10-31T08:20:43;17.34;;;5.46;;
2824;SDS011;1420;51.324;12.344;2022-10-31T08:23:11;16.70;;;6.20;;
2824;SDS011;1420;51.324;12.344;2022-10-31T08:25:39;19.98;;;6.20;;
2824;SDS011;1420;51.324;12.344;2022-10-31T08:28:06;17.58;;;5.60;;
2824;SDS011;1420;51.324;12.344;2022-10-31T08:30:34;19.64;;;6.50;;
2824;SDS011;1420;51.324;12.344;2022-10-31T08:33:04;17.62;;;5.90;;
2824;SDS011;1420;51.324;12.344;2022-10-31T08:35:32;20.22;;;6.62;;
2824;SDS011;1420;51.324;12.344;2022-10-31T08:37:59;20.72;;;6.20;;
2824;SDS011;1420;51.324;12.344;2022-10-31T08:40:27;18.42;;;6.84;;
2824;SDS011;1420;51.324;12.344;2022-10-31T08:42:56;17.28;;;6.20;;
2824;SDS011;1420;51.324;12.344;2022-10-31T08:45:24;19.68;;;7.76;;
2824;SDS011;1420;51.324;12.344;2022-10-31T08:47:52;22.06;;;6.92;;
2824;SDS011;1420;51.324;12.344;2022-10-31T08:50:19;21.26;;;6.68;;
2824;SDS011;1420;51.324;12.344;2022-10-31T08:52:47;22.08;;;7.22;;
2824;SDS011;1420;51.324;12.344;2022-10-31T08:55:14;20.46;;;7.68;;
2824;SDS011;1420;51.324;12.344;2022-10-31T08:57:41;21.24;;;7.30;;
2824;SDS011;1420;51.324;12.344;2022-10-31T09:00:08;19.14;;;6.26;;
2824;SDS011;1420;51.324;12.344;2022-10-31T09:02:36;20.28;;;8.54;;
2824;SDS011;1420;51.324;12.344;2022-10-31T09:05:03;23.26;;;7.30;;
2824;SDS011;1420;51.324;12.344;2022-10-31T09:07:31;23.04;;;7.90;;
2824;SDS011;1420;51.324;12.344;2022-10-31T09:09:59;22.20;;;7.44;;
2824;SDS011;1420;51.324;12.344;2022-10-31T09:12:26;24.18;;;8.98;;
2824;SDS011;1420;51.324;12.344;2022-10-31T09:14:54;25.78;;;9.34;;
2824;SDS011;1420;51.324;12.344;2022-10-31T09:17:21;23.04;;;9.08;;
2824;SDS011;1420;51.324;12.344;2022-10-31T09:19:49;23.16;;;9.56;;
2824;SDS011;1420;51.324;12.344;2022-10-31T09:22:17;24.86;;;9.64;;
2824;SDS011;1420;51.324;12.344;2022-10-31T09:24:45;29.90;;;10.20;;
2824;SDS011;1420;51.324;12.344;2022-10-31T09:27:13;25.38;;;11.04;;
2824;SDS011;1420;51.324;12.344;2022-10-31T09:29:41;23.86;;;9.70;;
2824;SDS011;1420;51.324;12.344;2022-10-31T09:32:09;29.16;;;12.10;;
2824;SDS011;1420;51.324;12.344;2022-10-31T09:34:37;27.92;;;11.86;;
2824;SDS011;1420;51.324;12.344;2022-10-31T09:37:04;26.22;;;11.22;;
2824;SDS011;1420;51.324;12.344;2022-10-31T09:39:31;29.50;;;13.34;;
2824;SDS011;1420;51.324;12.344;2022-10-31T09:42:08;25.32;;;11.52;;
2824;SDS011;1420;51.324;12.344;2022-10-31T09:44:49;29.16;;;11.68;;
2824;SDS011;1420;51.324;12.344;2022-10-31T09:47:17;28.14;;;11.48;;
2824;SDS011;1420;51.324;12.344;2022-10-31T09:49:53;30.88;;;12.38;;
2824;SDS011;1420;51.324;12.344;2022-10-31T09:52:21;32.20;;;12.30;;
2824;SDS011;1420;51.324;12.344;2022-10-31T09:54:54;23.62;;;10.58;;
2824;SDS011;1420;51.324;12.344;2022-10-31T09:57:25;24.96;;;10.64;;
2824;SDS011;1420;51.324;12.344;2022-10-31T09:59:52;30.02;;;13.14;;
2824;SDS011;1420;51.324;12.344;2022-10-31T10:02:23;26.04;;;12.32;;
2824;SDS011;1420;51.324;12.344;2022-10-31T10:04:55;30.66;;;12.90;;
2824;SDS011;1420;51.324;12.344;2022-10-31T10:07:23;26.10;;;13.40;;
2824;SDS011;1420;51.324;12.344;2022-10-31T10:09:49;29.18;;;14.86;;
2824;SDS011;1420;51.324;12.344;2022-10-31T10:12:19;28.72;;;12.92;;
2824;SDS011;1420;51.324;12.344;2022-10-31T10:17:53;28.98;;;12.64;;
2824;SDS011;1420;51.324;12.344;2022-10-31T10:20:30;30.48;;;11.00;;
2824;SDS011;1420;51.324;12.344;2022-10-31T10:25:51;28.42;;;11.80;;
2824;SDS011;1420;51.324;12.344;2022-10-31T10:30:59;28.40;;;11.68;;
2824;SDS011;1420;51.324;12.344;2022-10-31T10:33:29;27.84;;;12.58;;
2824;SDS011;1420;51.324;12.344;2022-10-31T10:35:58;26.82;;;13.80;;
2824;SDS011;1420;51.324;12.344;2022-10-31T10:38:31;29.90;;;12.84;;
2824;SDS011;1420;51.324;12.344;2022-10-31T10:40:56;29.58;;;15.20;;
2824;SDS011;1420;51.324;12.344;2022-10-31T10:43:26;25.58;;;12.48;;
2824;SDS011;1420;51.324;12.344;2022-10-31T10:45:53;23.58;;;11.62;;
2824;SDS011;1420;51.324;12.344;2022-10-31T10:50:58;33.04;;;16.46;;
2824;SDS011;1420;51.324;12.344;2022-10-31T10:56:16;30.40;;;12.34;;
2824;SDS011;1420;51.324;12.344;2022-10-31T10:58:44;28.00;;;12.22;;
2824;SDS011;1420;51.324;12.344;2022-10-31T11:01:12;28.36;;;12.60;;
2824;SDS011;1420;51.324;12.344;2022-10-31T11:03:39;36.32;;;14.96;;
2824;SDS011;1420;51.324;12.344;2022-10-31T11:06:15;33.14;;;14.32;;
2824;SDS011;1420;51.324;12.344;2022-10-31T11:08:34;29.24;;;12.86;;
2824;SDS011;1420;51.324;12.344;2022-10-31T11:11:05;30.52;;;13.52;;
2824;SDS011;1420;51.324;12.344;2022-10-31T11:13:31;36.94;;;14.96;;
2824;SDS011;1420;51.324;12.344;2022-10-31T11:16:00;34.22;;;14.38;;
2824;SDS011;1420;51.324;12.344;2022-10-31T11:18:29;29.68;;;14.04;;
2824;SDS011;1420;51.324;12.344;2022-10-31T11:20:55;29.78;;;15.94;;
2824;SDS011;1420;51.324;12.344;2022-10-31T11:23:22;29.84;;;13.26;;
2824;SDS011;1420;51.324;12.344;2022-10-31T11:25:51;30.36;;;13.34;;
2824;SDS011;1420;51.324;12.344;2022-10-31T11:28:24;31.54;;;15.42;;
2824;SDS011;1420;51.324;12.344;2022-10-31T11:30:54;33.58;;;14.62;;
2824;SDS011;1420;51.324;12.344;2022-10-31T11:33:29;30.60;;;13.10;;
2824;SDS011;1420;51.324;12.344;2022-10-31T11:35:57;36.40;;;17.54;;
2824;SDS011;1420;51.324;12.344;2022-10-31T11:38:26;34.12;;;14.58;;
2824;SDS011;1420;51.324;12.344;2022-10-31T11:40:53;33.76;;;16.84;;
2824;SDS011;1420;51.324;12.344;2022-10-31T11:43:20;36.64;;;17.10;;
2824;SDS011;1420;51.324;12.344;2022-10-31T11:45:48;38.16;;;17.90;;
2824;SDS011;1420;51.324;12.344;2022-10-31T11:48:16;37.84;;;17.26;;
2824;SDS011;1420;51.324;12.344;2022-10-31T11:50:47;34.70;;;15.98;;
2824;SDS011;1420;51.324;12.344;2022-10-31T11:53:16;33.46;;;19.34;;
2824;SDS011;1420;51.324;12.344;2022-10-31T11:55:43;33.78;;;19.84;;
2824;SDS011;1420;51.324;12.344;2022-10-31T12:00:53;39.66;;;27.48;;
2824;SDS011;1420;51.324;12.344;2022-10-31T12:03:27;41.28;;;28.02;;
2824;SDS011;1420;51.324;12.344;2022-10-31T12:05:56;36.70;;;21.02;;
2824;SDS011;1420;51.324;12.344;2022-10-31T12:08:23;42.48;;;23.68;;
2824;SDS011;1420;51.324;12.344;2022-10-31T12:13:50;47.38;;;26.30;;
2824;SDS011;1420;51.324;12.344;2022-10-31T12:19:05;41.06;;;29.10;;
2824;SDS011;1420;51.324;12.344;2022-10-31T12:21:41;41.62;;;19.88;;
2824;SDS011;1420;51.324;12.344;2022-10-31T12:24:12;35.28;;;17.36;;
2824;SDS011;1420;51.324;12.344;2022-10-31T12:27:02;36.44;;;20.18;;
2824;SDS011;1420;51.324;12.344;2022-10-31T12:30:15;44.80;;;21.20;;
2824;SDS011;1420;51.324;12.344;2022-10-31T12:32:38;36.32;;;21.06;;
2824;SDS011;1420;51.324;12.344;2022-10-31T12:38:03;36.80;;;21.78;;
2824;SDS011;1420;51.324;12.344;2022-10-31T12:46:10;42.40;;;16.52;;
2824;SDS011;1420;51.324;12.344;2022-10-31T12:48:40;37.00;;;22.82;;
2824;SDS011;1420;51.324;12.344;2022-10-31T12:53:56;36.16;;;19.90;;
2824;SDS011;1420;51.324;12.344;2022-10-31T12:59:21;36.16;;;18.04;;
2824;SDS011;1420;51.324;12.344;2022-10-31T13:01:50;29.78;;;15.38;;
2824;SDS011;1420;51.324;12.344;2022-10-31T13:04:38;35.48;;;15.48;;
2824;SDS011;1420;51.324;12.344;2022-10-31T13:07:07;35.90;;;16.86;;
2824;SDS011;1420;51.324;12.344;2022-10-31T13:12:17;38.10;;;18.82;;
2824;SDS011;1420;51.324;12.344;2022-10-31T13:14:45;32.82;;;18.92;;
2824;SDS011;1420;51.324;12.344;2022-10-31T13:17:15;43.02;;;21.56;;
2824;SDS011;1420;51.324;12.344;2022-10-31T13:19:41;35.54;;;16.84;;
2824;SDS011;1420;51.324;12.344;2022-10-31T13:22:10;35.38;;;15.48;;
2824;SDS011;1420;51.324;12.344;2022-10-31T13:24:44;35.66;;;18.34;;
2824;SDS011;1420;51.324;12.344;2022-10-31T13:27:18;37.48;;;15.84;;
2824;SDS011;1420;51.324;12.344;2022-10-31T13:29:48;36.78;;;15.36;;
2824;SDS011;1420;51.324;12.344;2022-10-31T13:32:12;33.70;;;14.44;;
2824;SDS011;1420;51.324;12.344;2022-10-31T13:34:40;31.90;;;18.22;;
2824;SDS011;1420;51.324;12.344;2022-10-31T13:40:02;34.76;;;13.96;;
2824;SDS011;1420;51.324;12.344;2022-10-31T13:45:19;29.70;;;15.38;;
2824;SDS011;1420;51.324;12.344;2022-10-31T13:50:23;31.54;;;15.46;;
2824;SDS011;1420;51.324;12.344;2022-10-31T13:52:48;32.04;;;16.20;;
2824;SDS011;1420;51.324;12.344;2022-10-31T13:57:55;35.30;;;17.44;;
2824;SDS011;1420;51.324;12.344;2022-10-31T14:00:24;33.78;;;13.34;;
2824;SDS011;1420;51.324;12.344;2022-10-31T14:02:52;33.52;;;20.66;;
2824;SDS011;1420;51.324;12.344;2022-10-31T14:05:22;28.28;;;14.92;;
2824;SDS011;1420;51.324;12.344;2022-10-31T14:07:51;30.92;;;18.60;;
2824;SDS011;1420;51.324;12.344;2022-10-31T14:10:21;30.74;;;15.44;;
2824;SDS011;1420;51.324;12.344;2022-10-31T14:12:49;30.36;;;14.74;;
2824;SDS011;1420;51.324;12.344;2022-10-31T14:15:19;28.56;;;13.92;;
2824;SDS011;1420;51.324;12.344;2022-10-31T14:17:47;30.42;;;16.28;;
2824;SDS011;1420;51.324;12.344;2022-10-31T14:20:24;29.08;;;15.30;;
2824;SDS011;1420;51.324;12.344;2022-10-31T14:22:50;30.92;;;17.42;;
2824;SDS011;1420;51.324;12.344;2022-10-31T14:27:52;29.42;;;13.56;;
2824;SDS011;1420;51.324;12.344;2022-10-31T14:30:21;28.52;;;14.90;;
2824;SDS011;1420;51.324;12.344;2022-10-31T14:32:50;33.32;;;16.22;;
2824;SDS011;1420;51.324;12.344;2022-10-31T14:35:16;35.22;;;18.86;;
2824;SDS011;1420;51.324;12.344;2022-10-31T14:37:50;32.30;;;14.94;;
2824;SDS011;1420;51.324;12.344;2022-10-31T14:40:18;27.20;;;16.78;;
2824;SDS011;1420;51.324;12.344;2022-10-31T14:45:42;25.38;;;15.86;;
2824;SDS011;1420;51.324;12.344;2022-10-31T14:48:34;34.22;;;14.54;;
2824;SDS011;1420;51.324;12.344;2022-10-31T14:51:18;32.02;;;14.94;;
2824;SDS011;1420;51.324;12.344;2022-10-31T14:53:50;27.28;;;14.08;;
2824;SDS011;1420;51.324;12.344;2022-10-31T14:56:21;30.62;;;19.60;;
2824;SDS011;1420;51.324;12.344;2022-10-31T14:58:50;30.38;;;20.24;;
2824;SDS011;1420;51.324;12.344;2022-10-31T15:01:27;44.88;;;26.32;;
2824;SDS011;1420;51.324;12.344;2022-10-31T15:03:57;70.28;;;35.88;;
2824;SDS011;1420;51.324;12.344;2022-10-31T15:06:25;41.40;;;26.24;;
2824;SDS011;1420;51.324;12.344;2022-10-31T15:08:53;46.34;;;31.94;;
2824;SDS011;1420;51.324;12.344;2022-10-31T15:11:20;54.20;;;40.16;;
2824;SDS011;1420;51.324;12.344;2022-10-31T15:13:49;42.34;;;24.10;;
2824;SDS011;1420;51.324;12.344;2022-10-31T15:16:24;32.44;;;18.50;;
2824;SDS011;1420;51.324;12.344;2022-10-31T15:18:52;32.16;;;20.18;;
2824;SDS011;1420;51.324;12.344;2022-10-31T15:21:19;47.06;;;26.10;;
2824;SDS011;1420;51.324;12.344;2022-10-31T15:23:46;40.12;;;22.12;;
2824;SDS011;1420;51.324;12.344;2022-10-31T15:26:15;41.06;;;25.86;;
2824;SDS011;1420;51.324;12.344;2022-10-31T15:28:42;47.60;;;29.02;;
2824;SDS011;1420;51.324;12.344;2022-10-31T15:31:13;44.92;;;29.56;;
2824;SDS011;1420;51.324;12.344;2022-10-31T15:33:40;40.36;;;23.30;;
2824;SDS011;1420;51.324;12.344;2022-10-31T15:36:17;48.58;;;31.08;;
2824;SDS011;1420;51.324;12.344;2022-10-31T15:38:34;39.04;;;25.80;;
2824;SDS011;1420;51.324;12.344;2022-10-31T15:41:05;42.64;;;23.72;;
2824;SDS011;1420;51.324;12.344;2022-10-31T15:43:33;50.44;;;35.08;;
2824;SDS011;1420;51.324;12.344;2022-10-31T15:46:00;51.18;;;35.32;;
2824;SDS011;1420;51.324;12.344;2022-10-31T15:48:28;56.74;;;45.20;;